Time;durP1;ratioP1;P1;durP2;ratioP2;P2;SDS_P1;SDS_P2;PMS_P1;PMS_P2;Temp;Humidity;BMP_temperature;BMP_pressure;BME280_temperature;BME280_humidity;BME280_pressure;Samples;Min_cycle;Max_cycle;Signal;HPM_P1;HPM_P2
2023/09/24 00:00:41;;;;;;;;;;;;;;;;;;7366139;19;1752;-61
2023/09/24 00:03:10;;;;;;;;;;;;;;;;;;7369945;19;1499;-61
2023/09/24 00:05:38;;;;;;;;;;;;;;;;;;7365880;19;1417;-58
2023/09/24 00:08:07;;;;;;;;;;;;;;;;;;7368206;19;2027;-59
2023/09/24 00:10:35;;;;;;;;;;;;;;;;;;7367050;19;1811;-62
2023/09/24 00:13:03;;;;;;;;;;;;;;;;;;7369465;19;1752;-61
2023/09/24 00:15:31;;;;;;;;;;;;;;;;;;7369699;19;1595;-61
2023/09/24 00:17:59;;;;;;;;;;;;;;;;;;7367481;19;1668;-61
2023/09/24 00:20:27;;;;;;;;;;;;;;;;;;7367499;19;1320;-62
2023/09/24 00:22:55;;;;;;;;;;;;;;;;;;7368579;19;1440;-61
2023/09/24 00:25:24;;;;;;;;;;;;;;;;;;7367227;19;1579;-61
2023/09/24 00:27:53;;;;;;;;;;;;;;;;;;7368180;19;1862;-61
2023/09/24 00:30:22;;;;;;;;;;;;;;;;;;7362216;19;1294;-62
2023/09/24 00:32:51;;;;;;;;;;;;;;;;;;7364864;19;898;-61
2023/09/24 00:35:19;;;;;;;;;;;;;;;;;;7364187;19;889;-61
2023/09/24 00:37:47;;;;;;;;;;;;;;;;;;7363962;19;792;-63
2023/09/24 00:40:15;;;;;;;;;;;;;;;;;;7361517;19;1292;-60
2023/09/24 00:42:43;;;;;;;;;;;;;;;;;;7364384;19;818;-62
2023/09/24 00:45:11;;;;;;;;;;;;;;;;;;7367044;19;1161;-61
2023/09/24 00:47:43;;;;;;;;;;;;;;;;;;7364997;19;1853;-61
2023/09/24 00:50:11;;;;;;;;;;;;;;;;;;7362705;19;1709;-61
2023/09/24 00:52:39;;;;;;;;;;;;;;;;;;7367426;19;1481;-61
2023/09/24 00:55:08;;;;;;;;;;;;;;;;;;7367011;19;1846;-60
2023/09/24 00:57:36;;;;;;;;;;;;;;;;;;7368866;19;1429;-61
2023/09/24 01:00:08;;;;;;;;;;;;;;;;;;7368239;19;2033;-61
2023/09/24 01:02:36;;;;;;;;;;;;;;;;;;7368070;19;1704;-60
2023/09/24 01:05:04;;;;;;;;;;;;;;;;;;7366417;19;1550;-61
2023/09/24 01:07:33;;;;;;;;;;;;;;;;;;7366471;19;2136;-60
2023/09/24 01:10:01;;;;;;;;;;;;;;;;;;7361177;19;1651;-62
2023/09/24 01:12:29;;;;;;;;;;;;;;;;;;7367018;19;1474;-62
2023/09/24 01:14:58;;;;;;;;;;;;;;;;;;7364501;19;2135;-62
2023/09/24 01:17:26;;;;;;;;;;;;;;;;;;7365570;19;1926;-61
2023/09/24 01:19:54;;;;;;;;;;;;;;;;;;7365573;19;1797;-61
2023/09/24 01:22:23;;;;;;;;;;;;;;;;;;7362957;19;1664;-64
2023/09/24 01:24:52;;;;;;;;;;;;;;;;;;7365988;19;2124;-61
2023/09/24 01:27:21;;;;;;;;;;;;;;;;;;7366298;19;1828;-62
2023/09/24 01:29:50;;;;;;;;;;;;;;;;;;7362927;19;1892;-61
2023/09/24 01:32:18;;;;;;;;;;;;;;;;;;7372214;19;1681;-61
2023/09/24 01:34:48;;;;;;;;;;;;;;;;;;7370043;19;1342;-61
2023/09/24 01:37:16;;;;;;;;;;;;;;;;;;7372111;19;1544;-60
2023/09/24 01:39:45;;;;;;;;;;;;;;;;;;7373526;19;1625;-62
2023/09/24 01:42:14;;;;;;;;;;;;;;;;;;7369972;19;1575;-62
2023/09/24 01:44:43;;;;;;;;;;;;;;;;;;7371577;19;2105;-62
2023/09/24 01:47:11;;;;;;;;;;;;;;;;;;7373219;19;1956;-62
2023/09/24 01:49:39;;;;;;;;;;;;;;;;;;7370165;19;1857;-61
2023/09/24 01:52:08;;;;;;;;;;;;;;;;;;7372779;19;1805;-61
2023/09/24 01:54:36;;;;;;;;;;;;;;;;;;7371089;19;2036;-62
2023/09/24 01:57:04;;;;;;;;;;;;;;;;;;7374026;19;1377;-62
2023/09/24 01:59:34;;;;;;;;;;;;;;;;;;7371651;19;1953;-61
2023/09/24 02:02:02;;;;;;;;;;;;;;;;;;7372772;19;1723;-61
2023/09/24 02:04:30;;;;;;;;;;;;;;;;;;7372542;19;1621;-63
2023/09/24 02:07:00;;;;;;;;;;;;;;;;;;7370873;19;1699;-61
2023/09/24 02:09:28;;;;;;;;;;;;;;;;;;7371521;19;1861;-61
2023/09/24 02:11:57;;;;;;;;;;;;;;;;;;7370893;19;1727;-62
2023/09/24 02:14:25;;;;;;;;;;;;;;;;;;7369651;19;2118;-61
2023/09/24 02:16:53;;;;;;;;;;;;;;;;;;7370664;19;1987;-63
2023/09/24 02:19:24;;;;;;;;;;;;;;;;;;7370335;19;1957;-62
2023/09/24 02:21:53;;;;;;;;;;;;;;;;;;7370749;19;1517;-61
2023/09/24 02:24:21;;;;;;;;;;;;;;;;;;7371578;19;1807;-61
2023/09/24 02:26:49;;;;;;;;;;;;;;;;;;7371935;19;917;-62
2023/09/24 02:29:18;;;;;;;;;;;;;;;;;;7367490;19;1837;-61
2023/09/24 02:31:48;;;;;;;;;;;;;;;;;;7368392;19;732;-61
2023/09/24 02:34:16;;;;;;;;;;;;;;;;;;7368905;19;778;-61
2023/09/24 02:36:44;;;;;;;;;;;;;;;;;;7367418;19;791;-61
2023/09/24 02:39:12;;;;;;;;;;;;;;;;;;7366342;19;1367;-64
2023/09/24 02:41:41;;;;;;;;;;;;;;;;;;7369831;19;1655;-60
2023/09/24 02:44:09;;;;;;;;;;;;;;;;;;7372572;19;835;-62
2023/09/24 02:46:37;;;;;;;;;;;;;;;;;;7367756;19;787;-61
2023/09/24 02:49:06;;;;;;;;;;;;;;;;;;7368084;19;1865;-62
2023/09/24 02:51:35;;;;;;;;;;;;;;;;;;7367929;19;866;-61
2023/09/24 02:54:04;;;;;;;;;;;;;;;;;;7368748;19;802;-63
2023/09/24 02:56:32;;;;;;;;;;;;;;;;;;7366837;19;790;-61
2023/09/24 02:59:01;;;;;;;;;;;;;;;;;;7366130;19;1469;-61
2023/09/24 03:01:29;;;;;;;;;;;;;;;;;;7369828;19;1153;-62
2023/09/24 03:03:59;;;;;;;;;;;;;;;;;;7369942;19;1720;-61
2023/09/24 03:06:27;;;;;;;;;;;;;;;;;;7366613;19;874;-61
2023/09/24 03:08:55;;;;;;;;;;;;;;;;;;7368329;19;2003;-61
2023/09/24 03:11:23;;;;;;;;;;;;;;;;;;7369813;19;1850;-62
2023/09/24 03:13:51;;;;;;;;;;;;;;;;;;7369757;19;1701;-61
2023/09/24 03:16:19;;;;;;;;;;;;;;;;;;7371366;19;1203;-61
2023/09/24 03:18:48;;;;;;;;;;;;;;;;;;7369603;19;1554;-62
2023/09/24 03:21:16;;;;;;;;;;;;;;;;;;7367907;19;789;-62
2023/09/24 03:23:44;;;;;;;;;;;;;;;;;;7371327;19;1647;-62
2023/09/24 03:26:15;;;;;;;;;;;;;;;;;;7369939;19;1990;-62
2023/09/24 03:28:43;;;;;;;;;;;;;;;;;;7369043;19;1874;-60
2023/09/24 03:31:12;;;;;;;;;;;;;;;;;;7366427;19;856;-61
2023/09/24 03:33:40;;;;;;;;;;;;;;;;;;7371195;19;1308;-59
2023/09/24 03:36:08;;;;;;;;;;;;;;;;;;7365634;19;884;-61
2023/09/24 03:38:37;;;;;;;;;;;;;;;;;;7368255;19;1840;-61
2023/09/24 03:41:05;;;;;;;;;;;;;;;;;;7367753;19;1756;-61
2023/09/24 03:43:33;;;;;;;;;;;;;;;;;;7369675;19;2180;-62
2023/09/24 03:46:02;;;;;;;;;;;;;;;;;;7365382;19;802;-60
2023/09/24 03:48:30;;;;;;;;;;;;;;;;;;7368123;19;1850;-62
2023/09/24 03:50:58;;;;;;;;;;;;;;;;;;7368455;19;1354;-61
2023/09/24 03:53:26;;;;;;;;;;;;;;;;;;7364124;19;1464;-62
2023/09/24 03:55:55;;;;;;;;;;;;;;;;;;7369980;19;1650;-61
2023/09/24 03:58:23;;;;;;;;;;;;;;;;;;7369910;19;1306;-61
2023/09/24 04:00:51;;;;;;;;;;;;;;;;;;7371990;19;1824;-61
2023/09/24 04:03:20;;;;;;;;;;;;;;;;;;7370342;19;853;-61
2023/09/24 04:05:48;;;;;;;;;;;;;;;;;;7368562;19;1826;-61
2023/09/24 04:08:16;;;;;;;;;;;;;;;;;;7370242;19;1541;-61
2023/09/24 04:10:44;;;;;;;;;;;;;;;;;;7364774;19;1842;-61
2023/09/24 04:13:12;;;;;;;;;;;;;;;;;;7368482;19;1762;-61
2023/09/24 04:15:41;;;;;;;;;;;;;;;;;;7368186;19;1469;-62
2023/09/24 04:18:09;;;;;;;;;;;;;;;;;;7370280;19;1411;-60
2023/09/24 04:20:37;;;;;;;;;;;;;;;;;;7366075;19;1703;-61
2023/09/24 04:23:06;;;;;;;;;;;;;;;;;;7370099;19;1733;-61
2023/09/24 04:25:34;;;;;;;;;;;;;;;;;;7369128;19;897;-61
2023/09/24 04:28:02;;;;;;;;;;;;;;;;;;7366998;19;874;-61
2023/09/24 04:30:30;;;;;;;;;;;;;;;;;;7363824;19;1845;-61
2023/09/24 04:33:07;;;;;;;;;;;;;;;;;;7365991;19;867;-61
2023/09/24 04:35:35;;;;;;;;;;;;;;;;;;7366588;19;714;-61
2023/09/24 04:38:03;;;;;;;;;;;;;;;;;;7365367;19;813;-62
2023/09/24 04:40:32;;;;;;;;;;;;;;;;;;7363073;19;1336;-61
2023/09/24 04:43:00;;;;;;;;;;;;;;;;;;7368666;19;869;-62
2023/09/24 04:45:28;;;;;;;;;;;;;;;;;;7365237;19;803;-59
2023/09/24 04:47:56;;;;;;;;;;;;;;;;;;7366100;19;775;-59
2023/09/24 04:50:25;;;;;;;;;;;;;;;;;;7362467;19;1865;-60
2023/09/24 04:52:54;;;;;;;;;;;;;;;;;;7365168;19;798;-60
2023/09/24 04:55:24;;;;;;;;;;;;;;;;;;7365325;19;801;-60
2023/09/24 04:57:52;;;;;;;;;;;;;;;;;;7365336;19;1452;-60
2023/09/24 05:00:21;;;;;;;;;;;;;;;;;;7364985;19;1733;-60
2023/09/24 05:02:49;;;;;;;;;;;;;;;;;;7369179;19;1582;-60
2023/09/24 05:05:17;;;;;;;;;;;;;;;;;;7371550;19;1407;-60
2023/09/24 05:07:46;;;;;;;;;;;;;;;;;;7373209;19;1801;-60
2023/09/24 05:10:14;;;;;;;;;;;;;;;;;;7371128;19;1861;-60
2023/09/24 05:12:42;;;;;;;;;;;;;;;;;;7374025;19;1263;-61
2023/09/24 05:15:10;;;;;;;;;;;;;;;;;;7374159;19;1350;-61
2023/09/24 05:17:38;;;;;;;;;;;;;;;;;;7374070;19;1395;-61
2023/09/24 05:20:07;;;;;;;;;;;;;;;;;;7369437;19;1696;-61
2023/09/24 05:22:35;;;;;;;;;;;;;;;;;;7373601;19;1449;-60
2023/09/24 05:25:04;;;;;;;;;;;;;;;;;;7370660;19;715;-61
2023/09/24 05:27:33;;;;;;;;;;;;;;;;;;7374395;19;1856;-61
2023/09/24 05:30:02;;;;;;;;;;;;;;;;;;7373189;19;1843;-61
2023/09/24 05:32:30;;;;;;;;;;;;;;;;;;7374879;19;1459;-61
2023/09/24 05:34:59;;;;;;;;;;;;;;;;;;7371854;19;1194;-61
2023/09/24 05:37:27;;;;;;;;;;;;;;;;;;7373684;19;1497;-60
2023/09/24 05:39:55;;;;;;;;;;;;;;;;;;7373283;19;1568;-61
2023/09/24 05:42:23;;;;;;;;;;;;;;;;;;7374198;19;1698;-60
2023/09/24 05:44:51;;;;;;;;;;;;;;;;;;7373797;19;1517;-60
2023/09/24 05:47:19;;;;;;;;;;;;;;;;;;7374411;19;1540;-61
2023/09/24 05:49:48;;;;;;;;;;;;;;;;;;7372165;19;1954;-62
2023/09/24 05:52:16;;;;;;;;;;;;;;;;;;7374406;19;1515;-60
2023/09/24 05:54:44;;;;;;;;;;;;;;;;;;7371106;19;1790;-61
2023/09/24 05:57:13;;;;;;;;;;;;;;;;;;7374125;19;1511;-61
2023/09/24 05:59:41;;;;;;;;;;;;;;;;;;7370801;19;1511;-61
2023/09/24 06:02:10;;;;;;;;;;;;;;;;;;7373713;19;1520;-61
2023/09/24 06:04:38;;;;;;;;;;;;;;;;;;7373384;19;1440;-60
2023/09/24 06:07:07;;;;;;;;;;;;;;;;;;7373860;19;1814;-59
2023/09/24 06:09:35;;;;;;;;;;;;;;;;;;7369539;19;1876;-55
2023/09/24 06:12:03;;;;;;;;;;;;;;;;;;7373223;19;877;-61
2023/09/24 06:14:31;;;;;;;;;;;;;;;;;;7371563;19;1180;-59
2023/09/24 06:16:59;;;;;;;;;;;;;;;;;;7372644;19;1887;-61
2023/09/24 06:19:28;;;;;;;;;;;;;;;;;;7368350;19;1512;-60
2023/09/24 06:21:56;;;;;;;;;;;;;;;;;;7371223;19;750;-60
2023/09/24 06:24:24;;;;;;;;;;;;;;;;;;7372219;19;1573;-63
2023/09/24 06:26:52;;;;;;;;;;;;;;;;;;7370424;19;862;-62
2023/09/24 06:29:20;;;;;;;;;;;;;;;;;;7372158;19;1865;-61
2023/09/24 06:31:50;;;;;;;;;;;;;;;;;;7371922;19;1695;-61
2023/09/24 06:34:18;;;;;;;;;;;;;;;;;;7368928;19;951;-60
2023/09/24 06:36:47;;;;;;;;;;;;;;;;;;7367847;19;798;-61
2023/09/24 06:39:16;;;;;;;;;;;;;;;;;;7368476;19;1337;-61
2023/09/24 06:41:44;;;;;;;;;;;;;;;;;;7369192;19;810;-59
2023/09/24 06:44:14;;;;;;;;;;;;;;;;;;7369099;19;809;-59
2023/09/24 06:46:42;;;;;;;;;;;;;;;;;;7369342;19;829;-60
2023/09/24 06:49:10;;;;;;;;;;;;;;;;;;7368118;19;1278;-64
2023/09/24 06:51:38;;;;;;;;;;;;;;;;;;7366490;19;1841;-59
2023/09/24 06:54:07;;;;;;;;;;;;;;;;;;7368757;19;1752;-60
2023/09/24 06:56:35;;;;;;;;;;;;;;;;;;7367268;19;1916;-60
2023/09/24 06:59:09;;;;;;;;;;;;;;;;;;7368251;19;1830;-60
2023/09/24 07:01:37;;;;;;;;;;;;;;;;;;7371033;19;1557;-60
2023/09/24 07:04:05;;;;;;;;;;;;;;;;;;7372693;19;1525;-60
2023/09/24 07:06:33;;;;;;;;;;;;;;;;;;7371922;19;1441;-60
2023/09/24 07:09:02;;;;;;;;;;;;;;;;;;7370748;19;1849;-60
2023/09/24 07:11:31;;;;;;;;;;;;;;;;;;7369856;19;1841;-59
2023/09/24 07:13:59;;;;;;;;;;;;;;;;;;7370318;19;849;-60
2023/09/24 07:16:28;;;;;;;;;;;;;;;;;;7376241;19;1398;-60
2023/09/24 07:18:56;;;;;;;;;;;;;;;;;;7368361;19;1260;-60
2023/09/24 07:21:25;;;;;;;;;;;;;;;;;;7368112;19;780;-60
2023/09/24 07:23:54;;;;;;;;;;;;;;;;;;7371614;19;1300;-60
2023/09/24 07:26:22;;;;;;;;;;;;;;;;;;7370167;19;1098;-61
2023/09/24 07:28:51;;;;;;;;;;;;;;;;;;7371958;19;1851;-59
2023/09/24 07:31:19;;;;;;;;;;;;;;;;;;7370212;19;1854;-59
2023/09/24 07:33:47;;;;;;;;;;;;;;;;;;7367236;19;790;-61
2023/09/24 07:36:15;;;;;;;;;;;;;;;;;;7368247;19;860;-61
2023/09/24 07:38:44;;;;;;;;;;;;;;;;;;7366557;19;1863;-62
2023/09/24 07:41:12;;;;;;;;;;;;;;;;;;7370283;19;1567;-60
2023/09/24 07:43:41;;;;;;;;;;;;;;;;;;7369990;19;1655;-63
2023/09/24 07:46:11;;;;;;;;;;;;;;;;;;7370637;19;1791;-62
2023/09/24 07:48:39;;;;;;;;;;;;;;;;;;7371690;19;1794;-60
2023/09/24 07:51:07;;;;;;;;;;;;;;;;;;7366302;19;1842;-56
2023/09/24 07:53:35;;;;;;;;;;;;;;;;;;7369206;19;1406;-60
2023/09/24 07:56:07;;;;;;;;;;;;;;;;;;7369370;19;1825;-60
2023/09/24 07:58:35;;;;;;;;;;;;;;;;;;7370072;19;1538;-61
2023/09/24 08:01:03;;;;;;;;;;;;;;;;;;7369630;19;1561;-60
2023/09/24 08:03:31;;;;;;;;;;;;;;;;;;7369643;19;1260;-61
2023/09/24 08:05:59;;;;;;;;;;;;;;;;;;7366199;19;763;-60
2023/09/24 08:08:27;;;;;;;;;;;;;;;;;;7367190;19;1296;-61
2023/09/24 08:10:56;;;;;;;;;;;;;;;;;;7364623;19;1853;-60
2023/09/24 08:13:25;;;;;;;;;;;;;;;;;;7366937;19;836;-61
2023/09/24 08:15:56;;;;;;;;;;;;;;;;;;7366138;19;711;-60
2023/09/24 08:18:24;;;;;;;;;;;;;;;;;;7367124;19;797;-60
2023/09/24 08:20:53;;;;;;;;;;;;;;;;;;7368546;19;789;-61
2023/09/24 08:23:21;;;;;;;;;;;;;;;;;;7366157;19;844;-62
2023/09/24 08:25:49;;;;;;;;;;;;;;;;;;7365411;19;839;-60
2023/09/24 08:28:17;;;;;;;;;;;;;;;;;;7366595;19;881;-60
2023/09/24 08:30:46;;;;;;;;;;;;;;;;;;7363414;19;1861;-59
2023/09/24 08:33:14;;;;;;;;;;;;;;;;;;7366083;19;874;-60
2023/09/24 08:35:43;;;;;;;;;;;;;;;;;;7365517;19;796;-60
2023/09/24 08:38:11;;;;;;;;;;;;;;;;;;7366178;19;850;-60
2023/09/24 08:40:39;;;;;;;;;;;;;;;;;;7367721;19;1333;-61
2023/09/24 08:43:07;;;;;;;;;;;;;;;;;;7372492;19;897;-60
2023/09/24 08:45:35;;;;;;;;;;;;;;;;;;7371859;19;910;-60
2023/09/24 08:48:07;;;;;;;;;;;;;;;;;;7372107;19;998;-61
2023/09/24 08:50:35;;;;;;;;;;;;;;;;;;7370516;19;1838;-62
2023/09/24 08:53:05;;;;;;;;;;;;;;;;;;7371607;19;861;-62
2023/09/24 08:55:33;;;;;;;;;;;;;;;;;;7371719;19;888;-60
2023/09/24 08:58:01;;;;;;;;;;;;;;;;;;7371022;19;844;-60
2023/09/24 09:00:29;;;;;;;;;;;;;;;;;;7370062;19;1346;-61
2023/09/24 09:02:57;;;;;;;;;;;;;;;;;;7370693;19;882;-61
2023/09/24 09:05:25;;;;;;;;;;;;;;;;;;7370825;19;892;-61
2023/09/24 09:07:53;;;;;;;;;;;;;;;;;;7370883;19;826;-61
2023/09/24 09:10:22;;;;;;;;;;;;;;;;;;7369026;19;1858;-61
2023/09/24 09:12:50;;;;;;;;;;;;;;;;;;7371074;19;825;-61
2023/09/24 09:15:18;;;;;;;;;;;;;;;;;;7370373;19;863;-61
2023/09/24 09:17:46;;;;;;;;;;;;;;;;;;7371131;19;821;-61
2023/09/24 09:20:15;;;;;;;;;;;;;;;;;;7369584;19;1809;-60
2023/09/24 09:22:43;;;;;;;;;;;;;;;;;;7370896;19;1038;-63
2023/09/24 09:25:11;;;;;;;;;;;;;;;;;;7370368;19;834;-61
2023/09/24 09:27:39;;;;;;;;;;;;;;;;;;7373903;19;872;-59
2023/09/24 09:30:08;;;;;;;;;;;;;;;;;;7371739;19;1880;-57
2023/09/24 09:32:36;;;;;;;;;;;;;;;;;;7374920;19;822;-59
2023/09/24 09:35:05;;;;;;;;;;;;;;;;;;7373336;19;780;-61
2023/09/24 09:37:33;;;;;;;;;;;;;;;;;;7374327;19;852;-61
2023/09/24 09:40:03;;;;;;;;;;;;;;;;;;7371819;19;1274;-64
2023/09/24 09:42:31;;;;;;;;;;;;;;;;;;7372554;19;933;-63
2023/09/24 09:44:59;;;;;;;;;;;;;;;;;;7369654;19;794;-63
2023/09/24 09:47:27;;;;;;;;;;;;;;;;;;7370612;19;797;-61
2023/09/24 09:49:56;;;;;;;;;;;;;;;;;;7369476;19;1277;-62
2023/09/24 09:52:24;;;;;;;;;;;;;;;;;;7365549;19;1866;-61
2023/09/24 09:54:52;;;;;;;;;;;;;;;;;;7369452;19;829;-61
2023/09/24 09:57:20;;;;;;;;;;;;;;;;;;7369681;19;856;-63
2023/09/24 09:59:48;;;;;;;;;;;;;;;;;;7368274;19;1278;-61
2023/09/24 10:02:16;;;;;;;;;;;;;;;;;;7369641;19;823;-61
2023/09/24 10:04:44;;;;;;;;;;;;;;;;;;7369196;19;824;-60
2023/09/24 10:07:13;;;;;;;;;;;;;;;;;;7369529;19;791;-62
2023/09/24 10:09:41;;;;;;;;;;;;;;;;;;7367523;19;1270;-62
2023/09/24 10:12:09;;;;;;;;;;;;;;;;;;7368088;19;1856;-62
2023/09/24 10:14:37;;;;;;;;;;;;;;;;;;7368131;19;868;-60
2023/09/24 10:17:03;;;;;;;;;;;;;;;;;;7369865;19;789;-63
2023/09/24 10:19:31;;;;;;;;;;;;;;;;;;7368122;19;1273;-60
2023/09/24 10:22:00;;;;;;;;;;;;;;;;;;7368981;19;818;-60
2023/09/24 10:24:28;;;;;;;;;;;;;;;;;;7368762;19;860;-62
2023/09/24 10:27:02;;;;;;;;;;;;;;;;;;7369128;19;793;-63
2023/09/24 10:29:30;;;;;;;;;;;;;;;;;;7367355;19;1371;-59
2023/09/24 10:31:59;;;;;;;;;;;;;;;;;;7367021;19;1841;-62
2023/09/24 10:34:27;;;;;;;;;;;;;;;;;;7368104;19;853;-63
2023/09/24 10:36:55;;;;;;;;;;;;;;;;;;7368476;19;806;-62
2023/09/24 10:39:23;;;;;;;;;;;;;;;;;;7367335;19;1285;-61
2023/09/24 10:41:51;;;;;;;;;;;;;;;;;;7368720;19;790;-61
2023/09/24 10:44:19;;;;;;;;;;;;;;;;;;7368663;19;881;-63
2023/09/24 10:46:47;;;;;;;;;;;;;;;;;;7367416;19;853;-61
2023/09/24 10:49:15;;;;;;;;;;;;;;;;;;7366882;19;1305;-63
2023/09/24 10:51:44;;;;;;;;;;;;;;;;;;7366899;19;1849;-63
2023/09/24 10:54:12;;;;;;;;;;;;;;;;;;7368788;19;829;-62
2023/09/24 10:56:40;;;;;;;;;;;;;;;;;;7367677;19;818;-62
2023/09/24 10:59:08;;;;;;;;;;;;;;;;;;7367354;19;1281;-64
2023/09/24 11:01:36;;;;;;;;;;;;;;;;;;7367720;19;964;-61
2023/09/24 11:04:04;;;;;;;;;;;;;;;;;;7366675;19;987;-61
2023/09/24 11:06:33;;;;;;;;;;;;;;;;;;7367145;19;825;-62
2023/09/24 11:09:01;;;;;;;;;;;;;;;;;;7366709;19;1229;-63
2023/09/24 11:11:29;;;;;;;;;;;;;;;;;;7366896;19;1865;-61
2023/09/24 11:13:57;;;;;;;;;;;;;;;;;;7367695;19;798;-60
2023/09/24 11:16:25;;;;;;;;;;;;;;;;;;7366513;19;873;-62
2023/09/24 11:18:54;;;;;;;;;;;;;;;;;;7366807;19;1266;-62
2023/09/24 11:21:22;;;;;;;;;;;;;;;;;;7367810;19;829;-63
2023/09/24 11:23:50;;;;;;;;;;;;;;;;;;7370444;19;1140;-61
2023/09/24 11:26:18;;;;;;;;;;;;;;;;;;7367089;19;848;-61
2023/09/24 11:28:46;;;;;;;;;;;;;;;;;;7366886;19;1348;-61
2023/09/24 11:31:14;;;;;;;;;;;;;;;;;;7366779;19;1861;-63
2023/09/24 11:33:42;;;;;;;;;;;;;;;;;;7367697;19;868;-61
2023/09/24 11:36:10;;;;;;;;;;;;;;;;;;7367102;19;790;-62
2023/09/24 11:38:40;;;;;;;;;;;;;;;;;;7366829;19;1363;-62
2023/09/24 11:41:08;;;;;;;;;;;;;;;;;;7367423;19;858;-61
2023/09/24 11:43:37;;;;;;;;;;;;;;;;;;7366559;19;829;-62
2023/09/24 11:46:05;;;;;;;;;;;;;;;;;;7366188;19;823;-60
2023/09/24 11:48:33;;;;;;;;;;;;;;;;;;7366914;19;1319;-62
2023/09/24 11:51:01;;;;;;;;;;;;;;;;;;7366742;19;1850;-63
2023/09/24 11:53:29;;;;;;;;;;;;;;;;;;7367391;19;846;-61
2023/09/24 11:55:57;;;;;;;;;;;;;;;;;;7366209;19;845;-61
2023/09/24 11:58:26;;;;;;;;;;;;;;;;;;7367273;19;1296;-62
2023/09/24 12:00:54;;;;;;;;;;;;;;;;;;7367087;19;770;-62
2023/09/24 12:03:23;;;;;;;;;;;;;;;;;;7366761;19;828;-62
2023/09/24 12:05:51;;;;;;;;;;;;;;;;;;7365899;19;807;-61
2023/09/24 12:08:19;;;;;;;;;;;;;;;;;;7366079;19;895;-63
2023/09/24 12:10:50;;;;;;;;;;;;;;;;;;7362753;19;1277;-62
2023/09/24 12:13:18;;;;;;;;;;;;;;;;;;7365549;19;818;-61
2023/09/24 12:15:46;;;;;;;;;;;;;;;;;;7363123;19;924;-62
2023/09/24 12:18:14;;;;;;;;;;;;;;;;;;7366276;19;817;-62
2023/09/24 12:20:43;;;;;;;;;;;;;;;;;;7363221;19;1266;-60
2023/09/24 12:23:11;;;;;;;;;;;;;;;;;;7366208;19;774;-63
2023/09/24 12:25:39;;;;;;;;;;;;;;;;;;7365265;19;834;-61
2023/09/24 12:28:08;;;;;;;;;;;;;;;;;;7366099;19;881;-62
2023/09/24 12:30:36;;;;;;;;;;;;;;;;;;7362763;19;1355;-60
2023/09/24 12:33:04;;;;;;;;;;;;;;;;;;7363390;19;2378;-61
2023/09/24 12:35:32;;;;;;;;;;;;;;;;;;7364815;19;779;-61
2023/09/24 12:38:00;;;;;;;;;;;;;;;;;;7365692;19;792;-60
2023/09/24 12:40:29;;;;;;;;;;;;;;;;;;7363352;19;1288;-61
2023/09/24 12:42:57;;;;;;;;;;;;;;;;;;7365898;19;864;-62
2023/09/24 12:45:25;;;;;;;;;;;;;;;;;;7364760;19;877;-62
2023/09/24 12:47:53;;;;;;;;;;;;;;;;;;7365322;19;837;-63
2023/09/24 12:50:21;;;;;;;;;;;;;;;;;;7362533;19;1185;-62
2023/09/24 12:52:49;;;;;;;;;;;;;;;;;;7365904;19;1845;-61
2023/09/24 12:55:18;;;;;;;;;;;;;;;;;;7368725;19;1298;-61
2023/09/24 12:57:46;;;;;;;;;;;;;;;;;;7369248;19;796;-62
2023/09/24 13:00:14;;;;;;;;;;;;;;;;;;7367139;19;1251;-62
2023/09/24 13:02:44;;;;;;;;;;;;;;;;;;7365048;19;840;-63
2023/09/24 13:05:12;;;;;;;;;;;;;;;;;;7364931;19;920;-62
2023/09/24 13:07:40;;;;;;;;;;;;;;;;;;7364846;19;814;-63
2023/09/24 13:10:08;;;;;;;;;;;;;;;;;;7363889;19;1270;-62
2023/09/24 13:12:36;;;;;;;;;;;;;;;;;;7363089;19;1841;-62
2023/09/24 13:15:04;;;;;;;;;;;;;;;;;;7363082;19;769;-61
2023/09/24 13:17:33;;;;;;;;;;;;;;;;;;7363524;19;805;-63
2023/09/24 13:20:01;;;;;;;;;;;;;;;;;;7362645;19;1272;-62
2023/09/24 13:22:29;;;;;;;;;;;;;;;;;;7364124;19;817;-64
2023/09/24 13:24:57;;;;;;;;;;;;;;;;;;7363439;19;810;-62
2023/09/24 13:27:25;;;;;;;;;;;;;;;;;;7370297;19;830;-62
2023/09/24 13:29:53;;;;;;;;;;;;;;;;;;7368779;19;1345;-62
2023/09/24 13:32:21;;;;;;;;;;;;;;;;;;7369495;19;1833;-63
2023/09/24 13:34:50;;;;;;;;;;;;;;;;;;7370170;19;895;-63
2023/09/24 13:37:18;;;;;;;;;;;;;;;;;;7370608;19;818;-67
2023/09/24 13:39:46;;;;;;;;;;;;;;;;;;7369013;19;1273;-63
2023/09/24 13:42:14;;;;;;;;;;;;;;;;;;7371941;19;1060;-61
2023/09/24 13:44:42;;;;;;;;;;;;;;;;;;7370769;19;831;-65
2023/09/24 13:47:14;;;;;;;;;;;;;;;;;;7371298;19;825;-62
2023/09/24 13:49:42;;;;;;;;;;;;;;;;;;7369228;19;1324;-62
2023/09/24 13:52:10;;;;;;;;;;;;;;;;;;7369522;19;1853;-63
2023/09/24 13:54:38;;;;;;;;;;;;;;;;;;7370451;19;829;-63
2023/09/24 13:57:08;;;;;;;;;;;;;;;;;;7370691;19;1016;-64
2023/09/24 13:59:36;;;;;;;;;;;;;;;;;;7369009;19;1322;-63
2023/09/24 14:02:05;;;;;;;;;;;;;;;;;;7370327;19;864;-64
2023/09/24 14:04:34;;;;;;;;;;;;;;;;;;7368919;19;919;-63
2023/09/24 14:07:02;;;;;;;;;;;;;;;;;;7369844;19;786;-63
2023/09/24 14:12:21;;;;;;;;;;;;;;;;;;7369340;19;1854;-64
2023/09/24 14:14:49;;;;;;;;;;;;;;;;;;7368744;19;886;-63
2023/09/24 14:17:17;;;;;;;;;;;;;;;;;;7369149;19;831;-63
2023/09/24 14:19:45;;;;;;;;;;;;;;;;;;7368134;19;1297;-65
2023/09/24 14:22:14;;;;;;;;;;;;;;;;;;7369908;19;837;-65
2023/09/24 14:24:42;;;;;;;;;;;;;;;;;;7368823;19;805;-66
2023/09/24 14:27:10;;;;;;;;;;;;;;;;;;7369260;19;888;-64
2023/09/24 14:29:38;;;;;;;;;;;;;;;;;;7367909;19;1354;-63
2023/09/24 14:32:06;;;;;;;;;;;;;;;;;;7368042;19;1838;-64
2023/09/24 14:34:34;;;;;;;;;;;;;;;;;;7368591;19;918;-64
2023/09/24 14:37:03;;;;;;;;;;;;;;;;;;7367843;19;781;-64
2023/09/24 14:39:31;;;;;;;;;;;;;;;;;;7367020;19;1228;-64
2023/09/24 14:41:59;;;;;;;;;;;;;;;;;;7368473;19;868;-64
2023/09/24 14:44:32;;;;;;;;;;;;;;;;;;7368001;19;850;-63
2023/09/24 14:47:00;;;;;;;;;;;;;;;;;;7368472;19;859;-64
2023/09/24 14:49:28;;;;;;;;;;;;;;;;;;7366991;19;1346;-63
2023/09/24 14:51:57;;;;;;;;;;;;;;;;;;7368423;19;1854;-63
2023/09/24 14:54:25;;;;;;;;;;;;;;;;;;7369327;19;866;-66
2023/09/24 14:56:53;;;;;;;;;;;;;;;;;;7367621;19;838;-63
2023/09/24 14:59:21;;;;;;;;;;;;;;;;;;7367359;19;1274;-65
2023/09/24 15:01:49;;;;;;;;;;;;;;;;;;7367884;19;833;-63
2023/09/24 15:04:17;;;;;;;;;;;;;;;;;;7368738;19;864;-63
2023/09/24 15:06:46;;;;;;;;;;;;;;;;;;7367530;19;817;-63
2023/09/24 15:09:14;;;;;;;;;;;;;;;;;;7367243;19;1286;-64
2023/09/24 15:11:42;;;;;;;;;;;;;;;;;;7367570;19;778;-67
2023/09/24 15:14:10;;;;;;;;;;;;;;;;;;7368014;19;892;-64
2023/09/24 15:16:39;;;;;;;;;;;;;;;;;;7367019;19;844;-62
2023/09/24 15:19:07;;;;;;;;;;;;;;;;;;7367129;19;1280;-63
2023/09/24 15:21:36;;;;;;;;;;;;;;;;;;7367187;19;834;-63
2023/09/24 15:24:06;;;;;;;;;;;;;;;;;;7367929;19;833;-62
2023/09/24 15:26:35;;;;;;;;;;;;;;;;;;7366330;19;760;-63
2023/09/24 15:29:04;;;;;;;;;;;;;;;;;;7366423;19;1323;-62
2023/09/24 15:31:32;;;;;;;;;;;;;;;;;;7367082;19;777;-63
2023/09/24 15:34:00;;;;;;;;;;;;;;;;;;7364705;19;1849;-64
2023/09/24 15:36:28;;;;;;;;;;;;;;;;;;7366929;19;829;-65
2023/09/24 15:38:56;;;;;;;;;;;;;;;;;;7370739;19;1359;-64
2023/09/24 15:41:25;;;;;;;;;;;;;;;;;;7371663;19;805;-64
2023/09/24 15:43:53;;;;;;;;;;;;;;;;;;7369774;19;829;-66
2023/09/24 15:46:26;;;;;;;;;;;;;;;;;;7366789;19;833;-64
2023/09/24 15:48:53;;;;;;;;;;;;;;;;;;7364536;19;1316;-63
2023/09/24 15:51:21;;;;;;;;;;;;;;;;;;7366393;19;848;-63
2023/09/24 15:53:49;;;;;;;;;;;;;;;;;;7364420;19;1865;-63
2023/09/24 15:56:17;;;;;;;;;;;;;;;;;;7366565;19;807;-62
2023/09/24 15:58:45;;;;;;;;;;;;;;;;;;7366140;19;1272;-63
2023/09/24 16:01:13;;;;;;;;;;;;;;;;;;7366763;19;801;-63
2023/09/24 16:03:41;;;;;;;;;;;;;;;;;;7366597;19;854;-63
2023/09/24 16:06:09;;;;;;;;;;;;;;;;;;7365982;19;802;-63
2023/09/24 16:08:38;;;;;;;;;;;;;;;;;;7366173;19;1281;-65
2023/09/24 16:11:06;;;;;;;;;;;;;;;;;;7366633;19;865;-62
2023/09/24 16:13:34;;;;;;;;;;;;;;;;;;7364375;19;1843;-63
2023/09/24 16:16:02;;;;;;;;;;;;;;;;;;7365460;19;869;-62
2023/09/24 16:18:30;;;;;;;;;;;;;;;;;;7365448;19;1257;-62
2023/09/24 16:20:58;;;;;;;;;;;;;;;;;;7366206;19;739;-62
2023/09/24 16:23:26;;;;;;;;;;;;;;;;;;7365416;19;798;-61
2023/09/24 16:25:54;;;;;;;;;;;;;;;;;;7365946;19;846;-63
2023/09/24 16:28:23;;;;;;;;;;;;;;;;;;7366325;19;791;-63
2023/09/24 16:30:51;;;;;;;;;;;;;;;;;;7363407;19;1317;-63
2023/09/24 16:33:19;;;;;;;;;;;;;;;;;;7364171;19;1865;-62
2023/09/24 16:35:47;;;;;;;;;;;;;;;;;;7365124;19;821;-63
2023/09/24 16:38:15;;;;;;;;;;;;;;;;;;7365521;19;870;-62
2023/09/24 16:40:43;;;;;;;;;;;;;;;;;;7362921;19;1329;-62
2023/09/24 16:43:11;;;;;;;;;;;;;;;;;;7365451;19;862;-62
2023/09/24 16:45:39;;;;;;;;;;;;;;;;;;7364343;19;866;-63
2023/09/24 16:48:08;;;;;;;;;;;;;;;;;;7365527;19;879;-62
2023/09/24 16:50:36;;;;;;;;;;;;;;;;;;7362351;19;1322;-63
2023/09/24 16:53:04;;;;;;;;;;;;;;;;;;7363937;19;1821;-62
2023/09/24 16:55:32;;;;;;;;;;;;;;;;;;7364781;19;812;-62
2023/09/24 16:58:00;;;;;;;;;;;;;;;;;;7365110;19;810;-63
2023/09/24 17:00:28;;;;;;;;;;;;;;;;;;7363867;19;1253;-63
2023/09/24 17:02:56;;;;;;;;;;;;;;;;;;7371817;19;794;-63
2023/09/24 17:05:24;;;;;;;;;;;;;;;;;;7370772;19;849;-62
2023/09/24 17:07:54;;;;;;;;;;;;;;;;;;7370862;19;795;-62
2023/09/24 17:10:22;;;;;;;;;;;;;;;;;;7370410;19;1306;-61
2023/09/24 17:12:50;;;;;;;;;;;;;;;;;;7374194;19;1860;-62
2023/09/24 17:15:20;;;;;;;;;;;;;;;;;;7373237;19;837;-63
2023/09/24 17:17:49;;;;;;;;;;;;;;;;;;7372306;19;793;-62
2023/09/24 17:20:17;;;;;;;;;;;;;;;;;;7371151;19;1255;-62